Time;durP1;ratioP1;P1;durP2;ratioP2;P2;SDS_P1;SDS_P2;PMS_P1;PMS_P2;Temp;Humidity;BMP_temperature;BMP_pressure;BME280_temperature;BME280_humidity;BME280_pressure;Samples;Min_cycle;Max_cycle;Signal;HPM_P1;HPM_P2
2023/10/22 00:00:13;;;;;;;2.97;2.10;;;11.20;99.90;;;;;;4995614;28;20037;-61
2023/10/22 00:02:39;;;;;;;3.47;2.75;;;11.20;99.90;;;;;;4996433;28;20092;-61
2023/10/22 00:05:06;;;;;;;3.53;2.40;;;11.20;99.90;;;;;;4994876;28;20077;-61
2023/10/22 00:07:32;;;;;;;3.45;2.50;;;11.20;99.90;;;;;;4995861;28;20030;-61
2023/10/22 00:09:58;;;;;;;32.15;3.08;;;11.10;99.90;;;;;;5000392;28;20113;-61
2023/10/22 00:12:23;;;;;;;3.47;2.08;;;11.10;99.90;;;;;;5003252;28;20109;-61
2023/10/22 00:14:49;;;;;;;2.35;1.85;;;11.00;99.90;;;;;;5001955;28;20697;-61
2023/10/22 00:17:15;;;;;;;2.08;1.60;;;10.90;99.90;;;;;;5003780;28;20923;-61
2023/10/22 00:19:41;;;;;;;2.00;1.67;;;10.90;99.90;;;;;;5003253;28;20428;-61
2023/10/22 00:22:08;;;;;;;10.45;1.58;;;10.80;99.90;;;;;;5005777;28;20026;-61
2023/10/22 00:24:34;;;;;;;8.23;1.60;;;10.80;99.90;;;;;;5004471;28;21108;-62
2023/10/22 00:27:00;;;;;;;4.40;1.45;;;10.80;99.90;;;;;;5002790;28;20021;-61
2023/10/22 00:29:26;;;;;;;2.17;1.02;;;10.80;99.90;;;;;;5003720;28;20049;-61
2023/10/22 00:31:52;;;;;;;6.45;1.60;;;10.80;99.90;;;;;;4998651;28;20402;-61
2023/10/22 00:34:18;;;;;;;1.63;1.30;;;10.80;99.90;;;;;;5003551;28;20030;-61
2023/10/22 00:36:44;;;;;;;1.92;1.30;;;10.80;99.90;;;;;;5003258;28;20021;-62
2023/10/22 00:39:10;;;;;;;3.53;1.60;;;10.90;99.90;;;;;;4999596;28;20426;-61
2023/10/22 00:41:36;;;;;;;4.00;1.20;;;10.80;99.90;;;;;;5002960;28;20104;-61
2023/10/22 00:44:01;;;;;;;2.17;1.23;;;10.80;99.90;;;;;;5007120;28;20072;-61
2023/10/22 00:46:27;;;;;;;1.98;1.13;;;10.80;99.90;;;;;;5003153;28;20050;-61
2023/10/22 00:48:55;;;;;;;5.45;1.42;;;10.70;99.90;;;;;;5001878;28;20069;-61
2023/10/22 00:51:21;;;;;;;2.70;1.30;;;10.70;99.90;;;;;;5001627;28;21095;-61
2023/10/22 00:53:49;;;;;;;2.90;1.30;;;10.70;99.90;;;;;;5004523;28;20053;-60
2023/10/22 00:56:15;;;;;;;3.78;1.23;;;10.60;99.90;;;;;;5000619;28;20114;-61
2023/10/22 00:58:42;;;;;;;2.42;0.98;;;10.60;99.90;;;;;;5000699;28;20113;-61
2023/10/22 01:01:09;;;;;;;4.18;0.93;;;10.50;99.90;;;;;;5002624;28;20026;-61
2023/10/22 01:03:36;;;;;;;1.10;0.95;;;10.50;99.90;;;;;;5003683;28;20053;-62
2023/10/22 01:06:04;;;;;;;2.50;1.00;;;10.50;99.90;;;;;;5006457;28;20060;-60
2023/10/22 01:08:31;;;;;;;4.75;1.50;;;10.50;99.90;;;;;;5004146;28;20030;-61
2023/10/22 01:11:08;;;;;;;4.80;1.70;;;10.50;99.90;;;;;;5000658;28;20061;-61
2023/10/22 01:13:35;;;;;;;3.72;1.70;;;10.40;99.90;;;;;;5002096;28;20116;-60
2023/10/22 01:16:01;;;;;;;7.05;1.80;;;10.40;99.90;;;;;;5003664;28;20030;-61
2023/10/22 01:18:26;;;;;;;2.67;1.50;;;10.40;99.90;;;;;;5003317;28;20050;-61
2023/10/22 01:20:52;;;;;;;2.00;1.48;;;10.40;99.90;;;;;;4999252;28;20022;-60
2023/10/22 01:23:18;;;;;;;2.00;1.30;;;10.30;99.90;;;;;;4997865;28;20041;-60
2023/10/22 01:25:44;;;;;;;2.22;1.40;;;10.30;99.90;;;;;;4999524;28;20402;-61
2023/10/22 01:28:10;;;;;;;4.75;1.38;;;10.20;99.90;;;;;;4999489;28;20537;-61
2023/10/22 01:30:35;;;;;;;5.18;1.40;;;10.20;99.90;;;;;;4998573;28;20040;-61
2023/10/22 01:33:01;;;;;;;4.78;1.67;;;10.20;99.90;;;;;;5001088;28;20023;-61
2023/10/22 01:35:27;;;;;;;1.95;1.65;;;10.20;99.90;;;;;;4998676;28;20034;-60
2023/10/22 01:37:53;;;;;;;1.83;1.45;;;10.20;99.90;;;;;;4998001;28;20027;-60
2023/10/22 01:40:19;;;;;;;3.05;1.50;;;10.10;99.90;;;;;;4998772;28;20033;-61
2023/10/22 01:42:45;;;;;;;2.58;1.42;;;10.10;99.90;;;;;;5000105;28;20033;-61
2023/10/22 01:45:11;;;;;;;7.28;1.50;;;10.00;99.90;;;;;;5000638;28;20040;-58
2023/10/22 01:47:37;;;;;;;4.40;1.90;;;10.00;99.90;;;;;;5000931;28;20026;-61
2023/10/22 01:50:04;;;;;;;2.42;1.30;;;9.80;99.90;;;;;;4996298;28;20030;-61
2023/10/22 01:52:30;;;;;;;5.18;1.20;;;9.70;99.90;;;;;;4997261;28;20026;-61
2023/10/22 01:54:56;;;;;;;4.30;1.73;;;9.70;99.90;;;;;;5000749;28;20448;-61
2023/10/22 01:57:23;;;;;;;1.75;1.65;;;9.70;99.90;;;;;;4999913;28;20034;-61
2023/10/22 01:59:49;;;;;;;2.90;1.95;;;9.70;99.90;;;;;;5000721;28;20076;-60
2023/10/22 02:02:15;;;;;;;5.70;2.20;;;9.60;99.90;;;;;;4999448;28;20033;-61
2023/10/22 02:04:41;;;;;;;4.65;2.10;;;9.60;99.90;;;;;;4999464;28;20398;-60
2023/10/22 02:07:07;;;;;;;3.28;2.30;;;9.60;99.90;;;;;;5000339;28;20027;-60
2023/10/22 02:09:32;;;;;;;3.10;2.78;;;9.70;99.90;;;;;;4997361;28;20516;-61
2023/10/22 02:11:58;;;;;;;6.57;2.70;;;9.70;99.90;;;;;;5001270;28;20097;-61
2023/10/22 02:14:24;;;;;;;3.38;2.20;;;9.70;99.90;;;;;;4998931;28;20438;-62
2023/10/22 02:16:50;;;;;;;3.33;2.20;;;9.70;99.90;;;;;;4997709;28;20563;-61
2023/10/22 02:19:15;;;;;;;5.88;2.58;;;9.70;99.90;;;;;;4998470;28;20038;-61
2023/10/22 02:21:41;;;;;;;3.25;2.20;;;9.60;99.90;;;;;;4999945;28;20044;-61
2023/10/22 02:24:07;;;;;;;31.45;3.15;;;9.60;99.90;;;;;;5003564;28;20072;-61
2023/10/22 02:26:33;;;;;;;6.07;2.33;;;9.60;99.90;;;;;;4994133;28;20113;-61
2023/10/22 02:28:58;;;;;;;3.58;2.15;;;9.60;99.90;;;;;;4997399;28;20030;-61
2023/10/22 02:31:24;;;;;;;6.00;2.10;;;9.60;99.90;;;;;;4999237;28;20069;-61
2023/10/22 02:34:01;;;;;;;5.97;2.38;;;9.60;99.90;;;;;;4997841;28;20554;-61
2023/10/22 02:36:27;;;;;;;3.97;2.45;;;9.60;99.90;;;;;;5001301;28;20034;-61
2023/10/22 02:38:52;;;;;;;5.65;2.42;;;9.60;99.90;;;;;;5000297;28;20022;-61
2023/10/22 02:41:18;;;;;;;13.60;3.40;;;9.60;99.90;;;;;;4998235;28;20116;-60
2023/10/22 02:43:43;;;;;;;3.38;2.72;;;9.50;99.90;;;;;;4995303;28;20077;-62
2023/10/22 02:46:09;;;;;;;5.35;2.50;;;9.50;99.90;;;;;;4998459;28;20034;-62
2023/10/22 02:48:35;;;;;;;4.07;2.47;;;9.50;99.90;;;;;;4997900;28;20042;-61
2023/10/22 02:51:03;;;;;;;7.15;2.22;;;9.50;99.90;;;;;;4998460;28;20153;-62
2023/10/22 02:53:29;;;;;;;4.85;2.25;;;9.40;99.90;;;;;;4998423;28;20061;-60
2023/10/22 02:56:01;;;;;;;3.88;2.28;;;9.40;99.90;;;;;;4995463;28;20027;-61
2023/10/22 02:58:30;;;;;;;2.85;2.65;;;9.40;99.90;;;;;;4999038;28;20030;-61
2023/10/22 03:01:03;;;;;;;4.97;2.65;;;9.30;99.90;;;;;;4999338;28;20026;-61
2023/10/22 03:03:29;;;;;;;2.85;1.90;;;9.30;99.90;;;;;;4997888;28;20514;-61
2023/10/22 03:05:58;;;;;;;6.90;2.75;;;9.30;99.90;;;;;;4997411;28;20031;-61
2023/10/22 03:08:23;;;;;;;2.70;2.50;;;9.30;99.90;;;;;;4995656;28;20591;-61
2023/10/22 03:10:49;;;;;;;5.05;2.33;;;9.30;99.90;;;;;;4995996;28;20030;-61
2023/10/22 03:13:15;;;;;;;3.47;2.95;;;9.20;99.90;;;;;;4996565;28;20030;-61
2023/10/22 03:15:40;;;;;;;3.80;2.88;;;9.20;99.90;;;;;;4997037;28;20121;-61
2023/10/22 03:18:07;;;;;;;3.47;3.05;;;9.20;99.90;;;;;;5000138;28;20192;-61
2023/10/22 03:20:33;;;;;;;3.25;2.58;;;9.20;99.90;;;;;;4996490;28;20030;-62
2023/10/22 03:23:01;;;;;;;4.10;2.90;;;9.20;99.90;;;;;;5001171;28;20401;-61
2023/10/22 03:25:27;;;;;;;4.30;3.08;;;9.20;99.90;;;;;;4997989;28;20070;-61
2023/10/22 03:27:52;;;;;;;6.07;2.70;;;9.20;99.90;;;;;;4996474;28;20105;-61
2023/10/22 03:30:18;;;;;;;3.70;3.00;;;9.20;99.90;;;;;;4996937;28;20022;-62
2023/10/22 03:32:45;;;;;;;4.25;3.33;;;9.20;99.90;;;;;;5011955;28;20045;-61
2023/10/22 03:35:10;;;;;;;3.80;3.00;;;9.20;99.90;;;;;;4999533;28;20030;-61
2023/10/22 03:37:36;;;;;;;5.10;3.22;;;9.10;99.90;;;;;;4998496;28;20088;-62
2023/10/22 03:40:04;;;;;;;6.82;3.28;;;9.20;99.90;;;;;;4996868;28;20124;-61
2023/10/22 03:42:30;;;;;;;5.28;3.60;;;9.20;99.90;;;;;;4996985;28;20828;-61
2023/10/22 03:44:56;;;;;;;8.43;3.65;;;9.20;99.90;;;;;;4995401;28;20053;-61
2023/10/22 03:47:21;;;;;;;4.63;3.90;;;9.20;99.90;;;;;;4997380;28;20052;-61
2023/10/22 03:49:47;;;;;;;6.40;3.75;;;9.20;99.90;;;;;;4996396;28;20497;-62
2023/10/22 03:52:13;;;;;;;7.85;3.03;;;9.20;99.90;;;;;;4998748;28;20060;-61
2023/10/22 03:54:38;;;;;;;5.85;3.25;;;9.20;99.90;;;;;;4999972;28;20042;-61
2023/10/22 03:57:04;;;;;;;9.32;3.80;;;9.20;99.90;;;;;;4995399;28;20027;-62
2023/10/22 03:59:29;;;;;;;5.57;4.03;;;9.20;99.90;;;;;;4999920;28;20029;-61
2023/10/22 04:01:55;;;;;;;9.02;5.63;;;9.10;99.90;;;;;;4995462;28;20065;-61
2023/10/22 04:04:22;;;;;;;5.93;5.43;;;9.10;99.90;;;;;;4996617;28;20105;-62
2023/10/22 04:06:47;;;;;;;6.72;6.05;;;9.20;99.90;;;;;;4996805;28;20038;-62
2023/10/22 04:09:13;;;;;;;8.18;5.97;;;9.10;99.90;;;;;;4996875;28;20030;-61
2023/10/22 04:11:39;;;;;;;5.43;4.90;;;9.10;99.90;;;;;;4998988;28;20018;-62
2023/10/22 04:14:04;;;;;;;4.40;4.00;;;9.10;99.90;;;;;;4997480;28;20025;-61
2023/10/22 04:16:30;;;;;;;7.78;4.35;;;9.10;99.90;;;;;;4996579;28;20077;-60
2023/10/22 04:18:55;;;;;;;4.07;3.78;;;9.10;99.90;;;;;;4996598;28;20121;-61
2023/10/22 04:21:21;;;;;;;4.50;3.65;;;9.00;99.90;;;;;;4995911;28;20057;-60
2023/10/22 04:23:47;;;;;;;6.20;4.50;;;9.00;99.90;;;;;;4996471;28;20052;-60
2023/10/22 04:26:14;;;;;;;7.57;4.45;;;9.00;99.90;;;;;;4994996;28;20045;-61
2023/10/22 04:28:42;;;;;;;5.28;3.97;;;9.00;99.90;;;;;;4997428;28;20081;-61
2023/10/22 04:31:08;;;;;;;6.57;4.32;;;8.90;99.90;;;;;;4995858;28;20760;-60
2023/10/22 04:33:35;;;;;;;6.05;3.80;;;8.90;99.90;;;;;;4997641;28;20037;-61
2023/10/22 04:36:01;;;;;;;5.55;3.50;;;8.80;99.90;;;;;;4996721;28;20552;-61
2023/10/22 04:38:26;;;;;;;4.07;3.50;;;8.80;99.90;;;;;;4996036;28;20038;-60
2023/10/22 04:40:52;;;;;;;9.13;6.68;;;8.80;99.90;;;;;;5001174;28;20038;-60
2023/10/22 04:43:18;;;;;;;11.30;6.97;;;8.80;99.90;;;;;;4994909;28;20481;-62
2023/10/22 04:45:47;;;;;;;27.98;7.75;;;8.80;99.90;;;;;;4996419;28;20137;-61
2023/10/22 04:48:13;;;;;;;7.82;5.75;;;8.80;99.90;;;;;;4997143;28;20060;-60
2023/10/22 04:50:38;;;;;;;8.25;7.18;;;8.80;99.90;;;;;;4995904;28;20058;-60
2023/10/22 04:53:04;;;;;;;8.52;7.68;;;8.80;99.90;;;;;;4995191;28;20608;-62
2023/10/22 04:55:30;;;;;;;6.03;5.53;;;8.70;99.90;;;;;;4998424;28;20042;-61
2023/10/22 04:57:56;;;;;;;7.93;6.60;;;8.70;99.90;;;;;;4999592;28;20022;-61
2023/10/22 05:00:22;;;;;;;14.40;11.32;;;8.60;99.90;;;;;;5002214;28;20037;-61
2023/10/22 05:02:48;;;;;;;9.20;7.00;;;8.60;99.90;;;;;;5001700;28;20037;-60
2023/10/22 05:05:14;;;;;;;7.38;5.03;;;8.50;99.90;;;;;;4999126;28;20073;-61
2023/10/22 05:07:40;;;;;;;4.15;3.75;;;8.50;99.90;;;;;;5001474;28;20030;-61
2023/10/22 05:10:06;;;;;;;7.85;4.07;;;8.50;99.90;;;;;;5000188;28;20084;-60
2023/10/22 05:12:32;;;;;;;12.10;3.85;;;8.50;99.90;;;;;;4997807;28;20026;-60
2023/10/22 05:14:58;;;;;;;10.82;4.45;;;8.50;99.90;;;;;;4998783;28;20041;-60
2023/10/22 05:17:24;;;;;;;4.65;4.25;;;8.40;99.90;;;;;;4999758;28;20138;-59
2023/10/22 05:19:50;;;;;;;5.68;3.33;;;8.40;99.90;;;;;;5002427;28;20038;-62
2023/10/22 05:22:20;;;;;;;4.13;3.30;;;8.30;99.90;;;;;;4997451;28;20022;-61
2023/10/22 05:24:49;;;;;;;4.53;3.38;;;8.30;99.90;;;;;;5000130;28;20054;-61
2023/10/22 05:27:16;;;;;;;4.20;3.75;;;8.30;99.90;;;;;;4998452;28;20414;-61
2023/10/22 05:29:43;;;;;;;4.45;3.92;;;8.20;99.90;;;;;;5000253;28;20087;-61
2023/10/22 05:32:08;;;;;;;6.15;3.90;;;8.20;99.90;;;;;;5000267;28;20040;-61
2023/10/22 05:34:34;;;;;;;11.60;3.90;;;8.20;99.90;;;;;;4999204;28;20030;-61
2023/10/22 05:37:00;;;;;;;7.07;4.28;;;8.20;99.90;;;;;;4998330;28;20041;-61
2023/10/22 05:39:25;;;;;;;4.85;4.22;;;8.10;99.90;;;;;;5000251;28;20561;-61
2023/10/22 05:41:51;;;;;;;6.97;3.65;;;8.10;99.90;;;;;;4998754;28;20022;-61
2023/10/22 05:44:18;;;;;;;9.07;4.18;;;8.10;99.90;;;;;;4998451;28;20041;-61
2023/10/22 05:46:44;;;;;;;6.28;3.95;;;8.10;99.90;;;;;;5004914;28;20517;-61
2023/10/22 05:49:11;;;;;;;5.25;3.80;;;8.10;99.90;;;;;;4997937;28;20046;-61
2023/10/22 05:51:38;;;;;;;5.70;4.40;;;8.10;99.90;;;;;;5000240;28;20034;-60
2023/10/22 05:54:04;;;;;;;5.95;4.13;;;8.10;99.90;;;;;;4997871;28;20030;-60
2023/10/22 05:56:32;;;;;;;7.22;4.88;;;8.10;99.90;;;;;;5001304;28;20025;-61
2023/10/22 05:59:01;;;;;;;11.02;10.10;;;8.10;99.90;;;;;;5001872;28;20042;-60
2023/10/22 06:01:26;;;;;;;7.20;6.50;;;8.10;99.90;;;;;;4999723;28;20045;-60
2023/10/22 06:03:52;;;;;;;7.78;6.95;;;8.10;99.90;;;;;;5000451;28;20031;-60
2023/10/22 06:06:19;;;;;;;7.72;7.03;;;8.10;99.90;;;;;;5002872;28;20117;-61
2023/10/22 06:08:45;;;;;;;6.90;6.03;;;8.10;99.90;;;;;;5001491;28;20018;-62
2023/10/22 06:11:11;;;;;;;7.82;5.55;;;8.10;99.90;;;;;;5001635;28;20041;-59
2023/10/22 06:13:37;;;;;;;8.38;6.78;;;8.10;99.90;;;;;;5000891;28;20497;-61
2023/10/22 06:16:02;;;;;;;7.40;6.43;;;8.20;99.90;;;;;;5001525;28;20027;-62
2023/10/22 06:18:28;;;;;;;6.88;5.55;;;8.20;99.90;;;;;;5002263;28;20512;-61
2023/10/22 06:20:54;;;;;;;5.60;5.10;;;8.20;99.90;;;;;;5001124;28;20030;-61
2023/10/22 06:23:21;;;;;;;7.55;5.30;;;8.20;99.90;;;;;;5001921;28;20029;-61
2023/10/22 06:25:47;;;;;;;5.97;4.93;;;8.30;99.90;;;;;;5003718;28;20038;-61
2023/10/22 06:28:13;;;;;;;5.95;4.78;;;8.30;99.90;;;;;;5000582;28;20052;-61
2023/10/22 06:30:40;;;;;;;5.97;4.93;;;8.30;99.90;;;;;;5002271;28;20031;-61
2023/10/22 06:33:06;;;;;;;7.63;5.05;;;8.40;99.90;;;;;;5000709;28;20025;-62
2023/10/22 06:35:32;;;;;;;6.65;4.50;;;8.50;99.90;;;;;;4999300;28;20036;-61
2023/10/22 06:37:57;;;;;;;4.50;4.10;;;8.50;99.90;;;;;;4997543;28;20490;-61
2023/10/22 06:40:24;;;;;;;4.05;3.70;;;8.40;99.90;;;;;;4998639;28;20050;-61
2023/10/22 06:42:50;;;;;;;3.70;3.33;;;8.30;99.90;;;;;;4998351;28;20057;-60
2023/10/22 06:45:17;;;;;;;14.52;3.08;;;8.20;99.90;;;;;;5000014;28;20037;-61
2023/10/22 06:47:43;;;;;;;112.50;4.25;;;8.10;99.90;;;;;;5001846;28;20584;-61
2023/10/22 06:50:11;;;;;;;80.07;4.32;;;7.90;99.90;;;;;;5001151;28;20125;-61
2023/10/22 06:52:37;;;;;;;39.75;3.20;;;7.80;99.90;;;;;;5013867;28;20385;-61
2023/10/22 06:55:05;;;;;;;8.23;2.60;;;7.70;99.90;;;;;;4999553;28;20437;-61
2023/10/22 06:57:30;;;;;;;8.43;3.00;;;7.60;99.90;;;;;;5001680;28;20030;-61
2023/10/22 06:59:58;;;;;;;5.40;3.53;;;7.50;99.90;;;;;;5001962;28;20014;-61
2023/10/22 07:02:24;;;;;;;4.80;3.90;;;7.50;99.90;;;;;;4998735;28;20117;-61
2023/10/22 07:04:54;;;;;;;4.07;3.50;;;7.50;99.90;;;;;;4997086;28;20022;-61
2023/10/22 07:07:20;;;;;;;6.25;5.20;;;7.60;99.90;;;;;;4996609;28;20085;-62
2023/10/22 07:09:46;;;;;;;6.35;5.75;;;7.60;99.90;;;;;;4996029;28;20030;-59
2023/10/22 07:12:12;;;;;;;6.28;5.68;;;7.60;99.90;;;;;;4999801;28;20093;-61
2023/10/22 07:14:38;;;;;;;8.10;6.38;;;7.70;99.90;;;;;;5000089;28;20033;-61
2023/10/22 07:17:04;;;;;;;6.72;6.10;;;7.80;99.90;;;;;;4998409;28;20030;-60
2023/10/22 07:19:30;;;;;;;7.65;6.82;;;8.00;99.90;;;;;;4999259;28;20041;-59
2023/10/22 07:21:55;;;;;;;8.52;7.43;;;8.10;99.90;;;;;;4998025;28;20030;-61
2023/10/22 07:24:21;;;;;;;7.57;6.88;;;8.20;99.90;;;;;;5002005;28;20033;-61
2023/10/22 07:26:47;;;;;;;7.63;6.82;;;8.30;99.90;;;;;;4998475;28;20047;-61
2023/10/22 07:29:13;;;;;;;7.22;6.53;;;8.40;99.90;;;;;;4999220;28;20041;-61
2023/10/22 07:31:39;;;;;;;7.35;6.65;;;8.50;99.90;;;;;;5000435;28;20084;-61
2023/10/22 07:34:06;;;;;;;12.65;6.75;;;8.60;99.90;;;;;;4997692;28;20065;-61
2023/10/22 07:36:32;;;;;;;10.88;7.47;;;8.80;99.90;;;;;;4999644;28;20797;-60
2023/10/22 07:38:57;;;;;;;7.47;6.70;;;8.90;99.90;;;;;;4998219;28;20033;-62
2023/10/22 07:41:24;;;;;;;8.68;7.78;;;9.10;99.90;;;;;;4999316;28;20030;-60
2023/10/22 07:43:49;;;;;;;8.60;7.72;;;9.30;99.90;;;;;;4997862;28;20088;-61
2023/10/22 07:46:16;;;;;;;9.60;7.85;;;9.40;99.90;;;;;;4998263;28;20065;-61
2023/10/22 07:48:42;;;;;;;8.75;7.95;;;9.50;99.90;;;;;;5003310;28;20371;-61
2023/10/22 07:51:11;;;;;;;8.55;7.75;;;9.50;99.90;;;;;;4998988;28;20076;-59
2023/10/22 07:53:37;;;;;;;14.90;8.30;;;9.50;99.90;;;;;;4999224;28;20038;-61
2023/10/22 07:56:05;;;;;;;8.38;7.57;;;9.50;99.90;;;;;;4997002;28;20433;-61
2023/10/22 07:58:31;;;;;;;9.30;8.40;;;9.50;99.90;;;;;;4997389;28;20038;-62
2023/10/22 08:00:57;;;;;;;9.10;8.05;;;9.50;99.90;;;;;;4999896;28;20096;-61
2023/10/22 08:03:22;;;;;;;10.23;8.27;;;9.50;99.90;;;;;;4999214;28;20576;-61
2023/10/22 08:05:48;;;;;;;11.38;8.82;;;9.70;99.90;;;;;;4995831;28;20030;-61
2023/10/22 08:08:13;;;;;;;9.73;8.82;;;9.80;99.90;;;;;;4996046;28;20030;-61
2023/10/22 08:10:39;;;;;;;11.82;9.63;;;10.00;99.90;;;;;;4996855;28;20022;-61
2023/10/22 08:13:04;;;;;;;10.90;9.57;;;10.20;99.90;;;;;;4998792;28;20632;-61
2023/10/22 08:15:30;;;;;;;11.18;10.00;;;10.50;99.90;;;;;;4993037;28;20049;-61
2023/10/22 08:17:56;;;;;;;9.88;8.95;;;10.80;99.90;;;;;;4996304;28;20014;-61
2023/10/22 08:20:21;;;;;;;8.13;7.07;;;11.00;99.90;;;;;;4997311;28;20436;-61
2023/10/22 08:22:47;;;;;;;8.38;7.55;;;11.10;99.90;;;;;;4997955;28;20022;-62
2023/10/22 08:25:13;;;;;;;7.93;5.88;;;11.20;99.90;;;;;;4996889;28;20034;-61
2023/10/22 08:27:38;;;;;;;7.65;5.72;;;11.40;99.90;;;;;;4995110;28;20023;-61
2023/10/22 08:30:04;;;;;;;10.68;5.07;;;11.60;99.90;;;;;;4995912;28;20468;-61
2023/10/22 08:32:37;;;;;;;5.15;3.03;;;11.50;99.90;;;;;;5005846;28;20026;-60
2023/10/22 08:35:03;;;;;;;6.18;3.47;;;11.60;99.90;;;;;;5003621;28;20026;-61
2023/10/22 08:37:28;;;;;;;5.95;2.50;;;11.70;99.90;;;;;;4999307;28;20022;-61
2023/10/22 08:39:55;;;;;;;4.82;2.22;;;11.80;99.90;;;;;;4999367;28;20441;-60
2023/10/22 08:42:23;;;;;;;3.50;1.65;;;11.90;99.90;;;;;;5001326;28;20513;-61
2023/10/22 08:44:49;;;;;;;3.20;1.52;;;12.00;99.90;;;;;;5002218;28;20022;-59
2023/10/22 08:47:16;;;;;;;2.45;2.25;;;12.10;99.90;;;;;;5003531;28;20109;-61
2023/10/22 08:49:42;;;;;;;3.05;1.40;;;12.20;99.90;;;;;;5002572;28;20441;-61
2023/10/22 08:52:08;;;;;;;5.47;2.03;;;12.30;99.90;;;;;;5006479;28;20022;-61
2023/10/22 08:54:36;;;;;;;28.55;2.33;;;12.40;99.90;;;;;;5003493;28;20037;-61
2023/10/22 08:57:02;;;;;;;2.75;1.38;;;12.50;99.90;;;;;;5004529;28;20037;-61
2023/10/22 08:59:29;;;;;;;5.30;1.80;;;12.80;99.90;;;;;;5005097;28;20021;-61
2023/10/22 09:01:56;;;;;;;2.47;1.20;;;13.20;99.90;;;;;;5002456;28;20389;-60
2023/10/22 09:04:22;;;;;;;3.90;1.25;;;13.60;99.90;;;;;;4998984;28;20034;-61
2023/10/22 09:06:52;;;;;;;3.58;1.20;;;13.90;99.90;;;;;;5002331;28;20026;-60
2023/10/22 09:09:35;;;;;;;5.20;2.00;;;14.10;99.90;;;;;;4999141;28;20089;-61
2023/10/22 09:12:01;;;;;;;3.58;1.10;;;14.40;99.90;;;;;;5001826;28;20021;-61
2023/10/22 09:14:27;;;;;;;3.55;1.38;;;14.70;99.90;;;;;;5005345;28;20033;-61
2023/10/22 09:16:52;;;;;;;2.65;1.10;;;14.80;99.90;;;;;;5000939;28;20033;-60
2023/10/22 09:19:37;;;;;;;4.10;1.33;;;15.00;99.90;;;;;;4999830;28;20517;-60
2023/10/22 09:22:07;;;;;;;3.50;0.90;;;15.30;99.90;;;;;;4997380;28;20763;-61
2023/10/22 09:24:34;;;;;;;3.67;1.63;;;15.70;99.90;;;;;;4999757;28;20095;-60
2023/10/22 09:27:00;;;;;;;4.82;1.02;;;15.80;99.90;;;;;;5001590;28;20034;-61
2023/10/22 09:29:26;;;;;;;5.95;0.90;;;15.90;99.90;;;;;;4999677;28;20080;-61
2023/10/22 09:31:53;;;;;;;4.63;0.90;;;15.90;99.90;;;;;;5001321;28;20096;-61
2023/10/22 09:34:30;;;;;;;5.22;1.20;;;16.00;99.90;;;;;;4999630;28;20126;-60
2023/10/22 09:36:56;;;;;;;5.63;1.13;;;16.10;99.90;;;;;;5000999;28;20049;-61
2023/10/22 09:39:45;;;;;;;6.80;1.30;;;16.10;99.90;;;;;;5003693;28;20036;-61
2023/10/22 09:42:12;;;;;;;12.43;1.27;;;16.10;99.90;;;;;;5001322;28;20057;-59
2023/10/22 09:44:46;;;;;;;8.13;1.60;;;16.10;99.90;;;;;;5002141;28;20046;-61
2023/10/22 09:47:21;;;;;;;6.10;1.30;;;16.00;99.90;;;;;;5001417;28;20044;-62
2023/10/22 09:49:56;;;;;;;4.63;1.30;;;15.80;99.90;;;;;;5001449;28;20034;-61
2023/10/22 09:52:23;;;;;;;6.22;1.00;;;15.70;99.90;;;;;;5001931;28;20094;-61
2023/10/22 09:54:54;;;;;;;2.92;1.17;;;15.60;99.90;;;;;;5004765;28;20506;-60
2023/10/22 09:57:29;;;;;;;7.53;1.17;;;15.70;99.90;;;;;;5001251;28;20436;-62
2023/10/22 10:00:01;;;;;;;4.53;1.00;;;15.50;99.90;;;;;;5002469;28;20033;-61
2023/10/22 10:02:28;;;;;;;5.50;1.02;;;15.30;99.90;;;;;;4999127;28;20045;-62
2023/10/22 10:04:54;;;;;;;4.03;1.25;;;15.20;99.90;;;;;;5002272;28;20030;-61
2023/10/22 10:07:22;;;;;;;7.00;2.38;;;15.10;99.90;;;;;;5003885;28;20366;-61
2023/10/22 10:09:49;;;;;;;4.85;1.73;;;15.10;99.90;;;;;;4999668;28;20041;-61
2023/10/22 10:12:16;;;;;;;5.68;1.20;;;15.10;99.90;;;;;;5004467;28;20508;-61
2023/10/22 10:14:45;;;;;;;6.53;1.10;;;15.20;99.90;;;;;;5000122;28;20026;-61
2023/10/22 10:17:13;;;;;;;4.30;1.35;;;15.30;99.90;;;;;;5000428;28;20030;-61
2023/10/22 10:19:39;;;;;;;13.05;1.20;;;15.50;99.90;;;;;;5001895;28;20881;-61
2023/10/22 10:22:05;;;;;;;4.30;1.13;;;15.60;99.90;;;;;;5002987;28;20091;-61
2023/10/22 10:24:32;;;;;;;7.82;1.75;;;15.80;99.90;;;;;;4997506;28;20097;-61
2023/10/22 10:26:58;;;;;;;7.15;1.08;;;15.80;99.90;;;;;;4995984;28;20026;-61
2023/10/22 10:29:25;;;;;;;5.72;1.60;;;15.60;99.90;;;;;;5000174;28;20045;-61
2023/10/22 10:31:52;;;;;;;10.02;1.35;;;15.50;99.90;;;;;;5000563;28;20053;-61
2023/10/22 10:34:40;;;;;;;10.38;1.20;;;15.50;99.90;;;;;;5000501;28;20483;-61
2023/10/22 10:37:13;;;;;;;10.10;1.02;;;15.40;99.90;;;;;;4997631;28;20035;-61
2023/10/22 10:39:45;;;;;;;6.95;1.00;;;15.30;99.90;;;;;;4996239;28;20050;-62
2023/10/22 10:42:31;;;;;;;1.95;0.77;;;15.10;99.90;;;;;;4999005;28;20225;-60
2023/10/22 10:45:02;;;;;;;3.65;0.82;;;15.00;99.90;;;;;;4998189;28;20107;-61
2023/10/22 10:47:36;;;;;;;5.15;1.13;;;14.80;99.90;;;;;;4999334;28;20121;-61
2023/10/22 10:50:11;;;;;;;4.68;1.50;;;14.80;99.90;;;;;;4998929;28;20027;-61
2023/10/22 10:52:43;;;;;;;6.40;2.08;;;14.80;99.90;;;;;;4997719;28;20116;-61
2023/10/22 10:55:09;;;;;;;5.78;0.90;;;14.70;99.90;;;;;;4996804;28;20022;-61
2023/10/22 10:57:37;;;;;;;4.28;1.17;;;14.80;99.90;;;;;;4999036;28;20034;-61
2023/10/22 11:00:09;;;;;;;5.15;1.25;;;14.70;99.90;;;;;;4996226;28;20079;-61
2023/10/22 11:02:51;;;;;;;3.75;1.00;;;14.80;99.90;;;;;;5000664;28;20109;-62
2023/10/22 11:05:29;;;;;;;4.55;0.95;;;14.90;99.90;;;;;;5001398;28;20540;-62
2023/10/22 11:07:55;;;;;;;3.05;1.13;;;15.00;99.90;;;;;;4998222;28;20030;-60
2023/10/22 11:10:21;;;;;;;3.25;0.80;;;15.20;99.90;;;;;;4998215;28;20018;-61
2023/10/22 11:12:47;;;;;;;2.90;0.88;;;15.40;99.90;;;;;;4998335;28;20093;-60
2023/10/22 11:15:13;;;;;;;5.32;0.85;;;15.70;99.90;;;;;;4999970;28;20030;-61
2023/10/22 11:17:45;;;;;;;2.33;1.05;;;16.00;99.90;;;;;;5000124;28;20021;-61
2023/10/22 11:20:13;;;;;;;4.10;0.80;;;16.20;99.90;;;;;;4997586;28;20031;-61
2023/10/22 11:22:39;;;;;;;3.55;0.88;;;16.40;99.90;;;;;;5000163;28;20386;-62
2023/10/22 11:25:09;;;;;;;7.65;1.77;;;16.60;99.90;;;;;;4995933;28;20034;-61
2023/10/22 11:27:39;;;;;;;6.72;1.52;;;16.60;99.90;;;;;;5000764;28;20045;-61
2023/10/22 11:30:06;;;;;;;2.17;0.88;;;16.50;99.90;;;;;;4996400;28;20037;-60
2023/10/22 11:32:35;;;;;;;3.75;0.90;;;16.30;99.90;;;;;;5000582;28;20038;-61
2023/10/22 11:35:04;;;;;;;4.47;1.13;;;16.10;99.90;;;;;;4997000;28;20032;-61
2023/10/22 11:37:41;;;;;;;5.95;1.02;;;15.80;99.90;;;;;;4997719;28;20057;-60
2023/10/22 11:40:25;;;;;;;3.92;0.80;;;15.60;99.90;;;;;;4995001;28;20125;-61
2023/10/22 11:42:52;;;;;;;4.05;0.82;;;15.40;99.90;;;;;;5000334;28;20058;-60
2023/10/22 11:45:17;;;;;;;4.43;0.93;;;15.30;99.90;;;;;;4998150;28;20060;-61
2023/10/22 11:47:43;;;;;;;4.00;0.85;;;15.40;99.90;;;;;;4996547;28;20604;-60
2023/10/22 11:50:09;;;;;;;6.15;1.67;;;15.50;99.90;;;;;;4997090;28;20080;-61
2023/10/22 11:52:35;;;;;;;2.38;0.75;;;15.50;99.90;;;;;;4995092;28;20046;-61
2023/10/22 11:55:01;;;;;;;6.20;1.02;;;15.50;99.90;;;;;;4997066;28;20704;-61
2023/10/22 11:57:27;;;;;;;4.70;1.00;;;15.60;99.90;;;;;;4999628;28;20105;-62
2023/10/22 11:59:52;;;;;;;6.63;1.30;;;15.60;99.90;;;;;;5000746;28;20174;-61
2023/10/22 12:02:18;;;;;;;11.25;2.08;;;15.60;99.90;;;;;;4998515;28;20041;-61
2023/10/22 12:04:43;;;;;;;5.93;1.00;;;15.60;99.90;;;;;;4995965;28;20049;-62
2023/10/22 12:07:09;;;;;;;4.05;0.80;;;15.60;99.90;;;;;;4998325;28;20125;-58
2023/10/22 12:09:35;;;;;;;5.68;1.05;;;15.70;99.90;;;;;;4994266;28;20034;-61
2023/10/22 12:12:00;;;;;;;2.88;0.90;;;15.80;99.90;;;;;;4996023;28;20057;-61
2023/10/22 12:14:26;;;;;;;5.20;1.15;;;16.00;99.90;;;;;;4994529;28;20066;-61
2023/10/22 12:16:51;;;;;;;4.10;0.93;;;16.30;99.90;;;;;;4996120;28;20113;-60
2023/10/22 12:19:17;;;;;;;4.88;1.10;;;16.60;99.90;;;;;;4994021;28;20449;-60
2023/10/22 12:21:43;;;;;;;3.60;0.73;;;16.80;99.90;;;;;;4997782;28;20116;-61
2023/10/22 12:24:08;;;;;;;2.60;0.85;;;17.00;99.90;;;;;;4998113;28;20091;-61
2023/10/22 12:26:34;;;;;;;6.45;1.00;;;16.90;99.90;;;;;;4995795;28;20041;-61
2023/10/22 12:29:00;;;;;;;2.67;1.92;;;16.70;99.90;;;;;;4997197;28;20030;-61
2023/10/22 12:31:25;;;;;;;3.63;1.08;;;16.50;99.90;;;;;;4995951;28;20039;-61
2023/10/22 12:33:51;;;;;;;5.88;1.20;;;16.30;99.90;;;;;;5001514;28;20056;-58
2023/10/22 12:36:17;;;;;;;4.20;1.30;;;16.20;99.90;;;;;;4997781;28;20028;-61
2023/10/22 12:38:42;;;;;;;4.47;0.90;;;16.00;99.90;;;;;;4995603;28;20351;-61
2023/10/22 12:41:08;;;;;;;6.45;1.10;;;15.80;99.90;;;;;;4996767;28;20077;-60
2023/10/22 12:43:33;;;;;;;5.68;1.00;;;15.70;99.90;;;;;;4996026;28;20359;-61
2023/10/22 12:46:03;;;;;;;5.30;1.30;;;15.70;99.90;;;;;;4997799;28;20068;-61
2023/10/22 12:48:28;;;;;;;2.30;1.17;;;15.60;99.90;;;;;;4998477;28;20034;-61